Main page
METAR-TAF:

METAR-TAF

Airports :

Rovaniemi, Finland

Rovaniemi Airport

latitude: 66-34N, longitude: 025-50E, elevation: 197 m

Current weather observation

The report was made 35 minutes ago, at 18:50 UTC
Wind 7 kt from the Northwest
Temperature -2°C
Humidity 100%
Pressure 1018 hPa
Visibility 10 km or more
Broken clouds at a height of 4600 ft

METAR: EFRO 211850Z AUTO 31007KT 9999 BKN046 M02/M02 Q1018

Time: 22:25 (19:25 UTC)

Forecast

The report was made 1 hour and 57 minutes ago, at 17:28 UTC
Forecast valid from 21 at 18 UTC to 22 at 18 UTC
Wind 7 kt from the Northwest
Visibility 10 km or more
Few clouds at a height of 100 ft
Broken clouds at a height of 4000 ft
Probability 40%
from 21 at 20 UTC to 22 at 08 UTC
Visibility: 0300 m
at a height of 100 ft
freezing fog

TAF: EFRO 211728Z 2118/2218 32007KT 9999 FEW001 BKN040 PROB40 2120/2208 0300 FZFG VV001

Weather observations and forecasts of more than 4000 airports (METAR and TAF reports).

The available stations are represented by yellow and red dots on the map.

Hover mouse over dot to see the name of the station.

Then click to see weather observations and forecasts.

To change the map : click on the green buttons with a black cross to zoom in, on the green button with a dash to zoom out, or on the green arrows for adjacent maps.


METAR-TAF: